createdAt,value
2017-10-17T00:01:32.774Z,16.10
2017-10-17T00:04:00.223Z,20.80
2017-10-17T00:06:27.650Z,16.90
2017-10-17T00:08:55.868Z,16.70
2017-10-17T00:11:23.305Z,14.57
2017-10-17T00:13:50.746Z,17.07
2017-10-17T00:16:18.957Z,16.67
2017-10-17T00:18:46.404Z,14.57
2017-10-17T00:21:14.395Z,13.77
2017-10-17T00:23:41.847Z,14.83
2017-10-17T00:26:09.303Z,15.43
2017-10-17T00:28:36.744Z,16.00
2017-10-17T00:31:04.174Z,18.20
2017-10-17T00:33:32.399Z,22.23
2017-10-17T00:39:01.159Z,14.17
2017-10-17T00:41:29.368Z,17.33
2017-10-17T00:43:56.831Z,16.77
2017-10-17T00:46:24.702Z,23.13
2017-10-17T00:48:52.152Z,19.33
2017-10-17T00:51:22.278Z,20.83
2017-10-17T00:53:49.742Z,22.53
2017-10-17T00:56:17.184Z,23.70
2017-10-17T00:58:46.188Z,13.50
2017-10-17T01:01:14.309Z,14.87
2017-10-17T01:03:43.176Z,16.83
2017-10-17T01:06:10.620Z,12.37
2017-10-17T01:08:38.063Z,13.70
2017-10-17T01:11:05.508Z,11.90
2017-10-17T01:13:32.959Z,15.20
2017-10-17T01:16:00.395Z,16.50
2017-10-17T01:18:28.611Z,13.60
2017-10-17T01:20:56.059Z,15.83
2017-10-17T01:23:25.220Z,14.50
2017-10-17T01:25:54.194Z,14.23
2017-10-17T01:28:21.923Z,11.77
2017-10-17T01:30:49.354Z,15.03
2017-10-17T01:33:16.794Z,18.27
2017-10-17T01:35:45.007Z,14.83
2017-10-17T01:38:14.879Z,12.47
2017-10-17T01:40:43.108Z,14.80
2017-10-17T01:43:21.984Z,12.77
2017-10-17T01:45:50.204Z,12.60
2017-10-17T01:48:21.367Z,11.37
2017-10-17T01:50:53.960Z,26.03
2017-10-17T01:53:29.907Z,25.37
2017-10-17T01:55:57.343Z,16.30
2017-10-17T01:58:26.082Z,13.57
2017-10-17T02:00:54.291Z,14.37
2017-10-17T02:03:21.737Z,19.40
2017-10-17T02:05:51.656Z,13.80
2017-10-17T02:08:19.088Z,12.70
2017-10-17T02:13:43.419Z,11.93
2017-10-17T02:16:10.974Z,13.00
2017-10-17T02:21:48.549Z,14.33
2017-10-17T02:24:17.947Z,12.43
2017-10-17T02:26:45.942Z,18.47
2017-10-17T02:29:29.523Z,23.53
2017-10-17T02:31:56.963Z,25.30
2017-10-17T02:37:32.215Z,31.00
2017-10-17T02:40:00.387Z,35.17
2017-10-17T02:42:27.832Z,43.87
2017-10-17T02:44:56.003Z,32.93
2017-10-17T02:47:23.444Z,19.83
2017-10-17T02:49:52.344Z,22.87
2017-10-17T02:52:21.275Z,21.77
2017-10-17T02:54:48.716Z,21.67
2017-10-17T02:57:16.633Z,16.87
2017-10-17T02:59:46.887Z,15.23
2017-10-17T03:02:34.934Z,18.43
2017-10-17T03:05:03.157Z,30.00
2017-10-17T03:07:30.595Z,19.23
2017-10-17T03:09:58.069Z,20.67
2017-10-17T03:12:25.501Z,20.67
2017-10-17T03:14:57.876Z,21.80
2017-10-17T03:17:26.107Z,24.47
2017-10-17T03:19:53.984Z,19.17
2017-10-17T03:22:22.180Z,17.90
2017-10-17T03:24:51.787Z,17.90
2017-10-17T03:27:19.219Z,15.03
2017-10-17T03:29:47.438Z,20.57
2017-10-17T03:32:14.876Z,17.67
2017-10-17T03:34:42.328Z,21.40
2017-10-17T03:37:31.377Z,23.43
2017-10-17T03:46:04.836Z,20.03
2017-10-17T03:48:32.272Z,23.50
2017-10-17T03:51:03.067Z,22.30
2017-10-17T03:53:39.070Z,15.00
2017-10-17T03:56:07.068Z,10.67
2017-10-17T03:58:38.770Z,10.43
2017-10-17T04:01:07.603Z,13.47
2017-10-17T04:03:53.432Z,11.00
2017-10-17T04:06:30.924Z,13.60
2017-10-17T04:09:00.727Z,9.60
2017-10-17T04:11:28.595Z,16.83
2017-10-17T04:14:18.253Z,30.47
2017-10-17T04:20:05.872Z,12.33
2017-10-17T04:22:42.286Z,14.57
2017-10-17T04:25:15.627Z,12.70
2017-10-17T04:27:46.614Z,15.07
2017-10-17T04:30:18.697Z,12.00
2017-10-17T04:36:12.599Z,20.03
2017-10-17T04:38:40.557Z,15.17
2017-10-17T04:41:25.607Z,21.47
2017-10-17T04:44:06.160Z,16.57
2017-10-17T04:46:47.507Z,18.23
2017-10-17T04:49:17.185Z,17.23
2017-10-17T04:52:05.355Z,18.90
2017-10-17T04:54:40.491Z,24.83
2017-10-17T05:00:11.243Z,18.47
2017-10-17T05:02:44.218Z,12.80
2017-10-17T05:08:28.663Z,15.27
2017-10-17T05:11:03.696Z,13.37
2017-10-17T05:13:50.934Z,15.23
2017-10-17T05:19:11.109Z,17.57
2017-10-17T05:21:38.556Z,14.97
2017-10-17T05:24:29.522Z,14.00
2017-10-17T05:29:52.394Z,13.83
2017-10-17T05:32:21.542Z,17.73
2017-10-17T05:34:48.978Z,17.40
2017-10-17T05:37:22.127Z,17.77
2017-10-17T05:39:52.227Z,17.13
2017-10-17T05:42:19.908Z,16.00
2017-10-17T05:44:57.254Z,16.33
2017-10-17T05:50:26.236Z,18.97
2017-10-17T05:52:54.438Z,13.97
2017-10-17T05:55:21.886Z,16.87
2017-10-17T05:57:49.876Z,17.00
2017-10-17T06:00:17.318Z,13.83
2017-10-17T06:02:45.571Z,12.67
2017-10-17T06:05:13.782Z,18.80
2017-10-17T06:07:41.218Z,17.47
2017-10-17T06:10:08.670Z,17.80
2017-10-17T06:12:36.872Z,12.63
2017-10-17T06:15:04.875Z,12.90
2017-10-17T06:17:32.313Z,22.40
2017-10-17T06:20:00.523Z,26.37
2017-10-17T06:22:27.968Z,17.90
2017-10-17T06:24:55.434Z,15.20
2017-10-17T06:27:22.870Z,16.10
2017-10-17T06:29:50.312Z,19.77
2017-10-17T06:32:17.763Z,20.00
2017-10-17T06:34:51.684Z,15.93
2017-10-17T06:37:19.129Z,20.57
2017-10-17T06:39:47.380Z,26.40
2017-10-17T06:42:14.830Z,21.17
2017-10-17T06:44:43.024Z,24.53
2017-10-17T06:47:10.467Z,25.13
2017-10-17T06:49:37.895Z,23.17
2017-10-17T06:52:05.347Z,27.33
2017-10-17T06:54:39.606Z,22.57
2017-10-17T06:57:07.055Z,25.90
2017-10-17T06:59:34.491Z,22.57
2017-10-17T07:02:02.712Z,17.97
2017-10-17T07:04:30.147Z,17.07
2017-10-17T07:06:57.589Z,18.70
2017-10-17T07:09:25.795Z,17.97
2017-10-17T07:11:53.230Z,18.33
2017-10-17T07:14:21.450Z,19.33
2017-10-17T07:16:48.883Z,18.00
2017-10-17T07:19:16.795Z,17.53
2017-10-17T07:21:44.239Z,16.83
2017-10-17T07:24:11.684Z,16.87
2017-10-17T07:26:39.137Z,17.80
2017-10-17T07:29:06.596Z,16.40
2017-10-17T07:31:34.750Z,15.97
2017-10-17T07:34:02.328Z,16.97
2017-10-17T07:36:29.783Z,16.77
2017-10-17T07:38:57.242Z,13.87
2017-10-17T07:41:24.694Z,12.03
2017-10-17T07:43:52.130Z,12.77
2017-10-17T07:46:22.955Z,12.20
2017-10-17T07:48:51.411Z,11.33
2017-10-17T07:51:19.555Z,10.67
2017-10-17T07:53:47.318Z,10.07
2017-10-17T07:56:14.784Z,10.93
2017-10-17T07:58:42.226Z,8.97
2017-10-17T08:01:09.680Z,10.17
2017-10-17T08:03:37.125Z,8.57
2017-10-17T08:06:04.588Z,10.10
2017-10-17T08:08:32.862Z,8.50
2017-10-17T08:11:01.312Z,7.50
2017-10-17T08:13:29.524Z,8.70
2017-10-17T08:15:57.750Z,8.53
2017-10-17T08:18:26.396Z,9.37
2017-10-17T08:20:53.855Z,9.00
2017-10-17T08:23:21.522Z,6.67
2017-10-17T08:25:49.760Z,8.97
2017-10-17T08:28:17.219Z,7.10
2017-10-17T08:30:45.479Z,10.47
2017-10-17T08:33:13.824Z,6.97
2017-10-17T08:35:41.669Z,7.33
2017-10-17T08:38:09.118Z,8.70
2017-10-17T08:40:36.548Z,9.13
2017-10-17T08:43:03.987Z,8.47
2017-10-17T08:45:32.192Z,7.73
2017-10-17T08:47:59.646Z,7.30
2017-10-17T08:50:27.084Z,7.85
2017-10-17T08:52:54.546Z,8.60
2017-10-17T08:55:21.982Z,7.68
2017-10-17T08:57:50.194Z,8.93
2017-10-17T09:00:17.636Z,9.75
2017-10-17T09:02:45.084Z,9.82
2017-10-17T09:05:12.541Z,8.73
2017-10-17T09:07:40.746Z,9.75
2017-10-17T09:10:10.610Z,8.32
2017-10-17T09:12:38.826Z,9.68
2017-10-17T09:15:06.322Z,11.15
2017-10-17T09:17:35.122Z,10.73
2017-10-17T09:20:02.997Z,11.63
2017-10-17T09:22:30.443Z,12.05
2017-10-17T09:24:58.687Z,12.20
2017-10-17T09:27:26.142Z,13.32
2017-10-17T09:29:53.577Z,13.38
2017-10-17T09:32:21.036Z,12.85
2017-10-17T09:34:48.471Z,12.60
2017-10-17T09:37:16.777Z,13.57
2017-10-17T09:39:44.215Z,11.40
2017-10-17T09:42:11.671Z,13.50
2017-10-17T09:44:39.659Z,12.07
2017-10-17T09:47:07.119Z,13.57
2017-10-17T09:49:34.574Z,13.35
2017-10-17T09:52:02.018Z,11.80
2017-10-17T09:54:29.464Z,13.15
2017-10-17T09:56:57.679Z,11.98
2017-10-17T09:59:25.120Z,12.45
2017-10-17T10:01:52.566Z,13.05
2017-10-17T10:04:20.015Z,11.73
2017-10-17T10:06:47.472Z,12.00
2017-10-17T10:09:15.440Z,9.60
2017-10-17T10:11:42.882Z,14.50
2017-10-17T10:14:11.839Z,10.18
2017-10-17T10:16:39.450Z,11.95
2017-10-17T10:19:07.337Z,10.90
2017-10-17T10:21:34.796Z,10.93
2017-10-17T10:24:03.032Z,11.43
2017-10-17T10:26:31.255Z,11.18
2017-10-17T10:29:00.434Z,11.02
2017-10-17T10:31:27.892Z,11.95
2017-10-17T10:33:55.327Z,10.75
2017-10-17T10:36:23.535Z,12.55
2017-10-17T10:38:51.603Z,10.07
2017-10-17T10:41:19.074Z,10.55
2017-10-17T10:43:46.507Z,9.60
2017-10-17T10:46:14.226Z,10.57
2017-10-17T10:48:41.664Z,9.95
2017-10-17T10:51:09.867Z,9.05
2017-10-17T10:53:37.314Z,9.80
2017-10-17T10:56:04.758Z,9.18
2017-10-17T10:58:33.002Z,8.77
2017-10-17T11:01:00.422Z,7.60
2017-10-17T11:03:29.090Z,7.47
2017-10-17T11:05:56.524Z,9.10
2017-10-17T11:08:23.984Z,10.13
2017-10-17T11:10:52.159Z,9.07
2017-10-17T11:13:19.611Z,8.63
2017-10-17T11:15:47.113Z,18.25
2017-10-17T11:18:15.330Z,9.60
2017-10-17T11:20:42.786Z,9.57
2017-10-17T11:23:10.787Z,10.35
2017-10-17T11:25:38.233Z,9.85
2017-10-17T11:28:06.210Z,9.35
2017-10-17T11:30:33.666Z,9.50
2017-10-17T11:33:01.351Z,8.82
2017-10-17T11:35:28.786Z,8.70
2017-10-17T11:37:56.656Z,9.82
2017-10-17T11:40:35.979Z,10.43
2017-10-17T11:43:16.247Z,11.00
2017-10-17T11:45:44.182Z,7.78
2017-10-17T11:48:12.515Z,9.27
2017-10-17T11:50:40.740Z,10.25
2017-10-17T11:53:08.199Z,9.77
2017-10-17T11:55:35.651Z,9.13
2017-10-17T11:58:04.053Z,9.27
2017-10-17T12:00:31.621Z,8.73
2017-10-17T12:02:59.070Z,10.13
2017-10-17T12:05:27.207Z,8.75
2017-10-17T12:07:54.690Z,8.70
2017-10-17T12:10:22.840Z,9.10
2017-10-17T12:12:51.183Z,10.60
2017-10-17T12:15:18.847Z,7.65
2017-10-17T12:17:47.066Z,9.05
2017-10-17T12:20:14.502Z,8.18
2017-10-17T12:22:41.958Z,8.05
2017-10-17T12:25:09.958Z,7.57
2017-10-17T12:27:37.419Z,9.38
2017-10-17T12:30:05.910Z,8.70
2017-10-17T12:32:34.948Z,9.93
2017-10-17T12:35:03.156Z,9.45
2017-10-17T12:37:30.599Z,8.30
2017-10-17T12:39:58.048Z,9.07
2017-10-17T12:42:26.255Z,8.63
2017-10-17T12:44:53.703Z,8.73
2017-10-17T12:47:21.155Z,9.52
2017-10-17T12:49:48.600Z,8.07
2017-10-17T12:52:16.044Z,9.27
2017-10-17T12:54:44.264Z,10.82
2017-10-17T12:57:11.690Z,8.85
2017-10-17T12:59:39.573Z,9.35
2017-10-17T13:02:07.012Z,11.57
2017-10-17T13:04:34.468Z,9.55
2017-10-17T13:07:01.915Z,9.90
2017-10-17T13:09:33.143Z,9.73
2017-10-17T13:12:00.582Z,7.62
2017-10-17T13:14:28.044Z,10.07
2017-10-17T13:16:55.483Z,9.80
2017-10-17T13:19:22.934Z,9.20
2017-10-17T13:21:50.498Z,8.50
2017-10-17T13:24:18.367Z,8.25
2017-10-17T13:26:45.815Z,10.50
2017-10-17T13:29:13.259Z,8.07
2017-10-17T13:31:41.378Z,9.90
2017-10-17T13:34:09.218Z,10.65
2017-10-17T13:36:36.660Z,9.10
2017-10-17T13:39:04.127Z,10.20
2017-10-17T13:41:31.559Z,9.32
2017-10-17T13:43:59.003Z,9.40
2017-10-17T13:46:26.451Z,8.45
2017-10-17T13:48:55.083Z,8.70
2017-10-17T13:51:22.525Z,10.98
2017-10-17T13:53:50.024Z,10.00
2017-10-17T13:56:17.495Z,8.93
2017-10-17T13:58:45.742Z,8.55
2017-10-17T14:01:13.165Z,9.07
2017-10-17T14:03:41.347Z,9.25
2017-10-17T14:06:11.248Z,6.50
2017-10-17T14:08:38.703Z,8.35
2017-10-17T14:11:06.140Z,6.30
2017-10-17T14:13:34.359Z,7.78
2017-10-17T14:16:01.807Z,7.50
2017-10-17T14:18:29.250Z,8.40
2017-10-17T14:20:56.691Z,7.28
2017-10-17T14:23:24.898Z,7.40
2017-10-17T14:25:52.734Z,7.95
2017-10-17T14:28:21.053Z,6.18
2017-10-17T14:30:49.072Z,7.62
2017-10-17T14:33:16.535Z,5.25
2017-10-17T14:35:43.962Z,8.57
2017-10-17T14:38:11.412Z,8.90
2017-10-17T14:40:38.851Z,7.30
2017-10-17T14:43:06.307Z,7.95
2017-10-17T14:45:34.297Z,8.32
2017-10-17T14:48:02.172Z,6.90
2017-10-17T14:50:29.616Z,6.10
2017-10-17T14:52:57.062Z,8.35
2017-10-17T14:55:24.509Z,8.20
2017-10-17T14:57:52.032Z,8.13
2017-10-17T15:00:20.227Z,6.32
2017-10-17T15:02:48.706Z,6.45
2017-10-17T15:05:16.156Z,7.30
2017-10-17T15:07:45.747Z,7.65
2017-10-17T15:10:15.679Z,6.12
2017-10-17T15:12:43.150Z,7.30
2017-10-17T15:15:10.587Z,8.05
2017-10-17T15:17:38.045Z,7.47
2017-10-17T15:20:06.260Z,7.18
2017-10-17T15:22:34.259Z,8.23
2017-10-17T15:25:01.695Z,6.20
2017-10-17T15:27:29.143Z,8.27
2017-10-17T15:29:56.591Z,5.22
2017-10-17T15:32:24.040Z,8.52
2017-10-17T15:34:51.499Z,8.05
2017-10-17T15:37:18.944Z,8.60
2017-10-17T15:39:46.400Z,9.63
2017-10-17T15:42:13.843Z,9.18
2017-10-17T15:44:42.064Z,7.80
2017-10-17T15:47:09.513Z,8.25
2017-10-17T15:49:36.961Z,6.97
2017-10-17T15:52:04.410Z,7.70
2017-10-17T15:54:31.873Z,8.35
2017-10-17T15:56:59.319Z,7.43
2017-10-17T15:59:30.046Z,6.75
2017-10-17T16:01:57.651Z,8.05
2017-10-17T16:04:25.103Z,6.95
2017-10-17T16:06:53.299Z,5.45
2017-10-17T16:09:21.299Z,7.35
2017-10-17T16:11:49.518Z,6.45
2017-10-17T16:14:16.959Z,7.90
2017-10-17T16:16:44.406Z,8.40
2017-10-17T16:19:11.874Z,7.28
2017-10-17T16:21:39.316Z,7.57
2017-10-17T16:24:07.048Z,8.15
2017-10-17T16:26:35.267Z,10.55
2017-10-17T16:29:02.720Z,8.57
2017-10-17T16:31:30.155Z,9.82
2017-10-17T16:33:58.366Z,9.60
2017-10-17T16:36:25.803Z,8.33
2017-10-17T16:38:53.247Z,7.90
2017-10-17T16:41:21.451Z,10.43
2017-10-17T16:43:48.914Z,14.50
2017-10-17T16:46:16.467Z,15.40
2017-10-17T16:48:44.023Z,14.53
2017-10-17T16:51:11.485Z,12.10
2017-10-17T16:53:38.936Z,13.17
2017-10-17T16:56:09.674Z,13.63
2017-10-17T16:58:37.124Z,12.87
2017-10-17T17:01:04.562Z,12.33
2017-10-17T17:03:32.776Z,13.73
2017-10-17T17:06:00.330Z,10.93
2017-10-17T17:08:27.826Z,10.90
2017-10-17T17:10:55.289Z,13.70
2017-10-17T17:13:22.733Z,15.87
2017-10-17T17:15:50.182Z,12.87
2017-10-17T17:18:17.648Z,12.30
2017-10-17T17:20:45.123Z,12.73
2017-10-17T17:23:12.567Z,14.53
2017-10-17T17:25:40.035Z,14.93
2017-10-17T17:28:07.479Z,15.73
2017-10-17T17:30:34.937Z,15.83
2017-10-17T17:33:02.382Z,15.80
2017-10-17T17:35:29.849Z,17.17
2017-10-17T17:37:57.599Z,16.03
2017-10-17T17:40:25.283Z,19.57
2017-10-17T17:42:52.739Z,17.43
2017-10-17T17:45:20.187Z,19.20
2017-10-17T17:47:47.631Z,18.43
2017-10-17T17:50:15.088Z,18.27
2017-10-17T17:52:42.535Z,18.23
2017-10-17T17:55:10.606Z,17.80
2017-10-17T17:57:38.050Z,18.10
2017-10-17T18:00:05.647Z,14.53
2017-10-17T18:02:33.090Z,15.07
2017-10-17T18:05:00.538Z,14.90
2017-10-17T18:07:28.971Z,17.13
2017-10-17T18:09:57.195Z,18.70
2017-10-17T18:12:24.629Z,19.40
2017-10-17T18:14:52.644Z,19.00
2017-10-17T18:17:20.109Z,16.10
2017-10-17T18:19:47.563Z,16.83
2017-10-17T18:22:15.019Z,15.57
2017-10-17T18:24:43.198Z,18.33
2017-10-17T18:27:10.643Z,20.00
2017-10-17T18:29:38.106Z,15.13
2017-10-17T18:32:06.045Z,14.67
2017-10-17T18:34:33.507Z,17.43
2017-10-17T18:37:01.012Z,14.67
2017-10-17T18:39:29.449Z,15.93
2017-10-17T18:41:56.936Z,18.43
2017-10-17T18:44:24.388Z,14.27
2017-10-17T18:46:51.839Z,19.77
2017-10-17T18:49:22.124Z,17.37
2017-10-17T18:51:49.728Z,17.20
2017-10-17T18:54:17.176Z,15.70
2017-10-17T18:56:44.644Z,28.27
2017-10-17T18:59:12.120Z,20.13
2017-10-17T19:01:40.366Z,15.83
2017-10-17T19:04:07.802Z,18.37
2017-10-17T19:06:35.710Z,18.80
2017-10-17T19:09:03.156Z,18.93
2017-10-17T19:11:30.594Z,35.53
2017-10-17T19:13:58.619Z,25.50
2017-10-17T19:16:26.819Z,20.23
2017-10-17T19:18:54.276Z,17.93
2017-10-17T19:21:21.719Z,16.67
2017-10-17T19:23:49.179Z,17.43
2017-10-17T19:26:16.711Z,23.00
2017-10-17T19:28:45.711Z,21.37
2017-10-17T19:31:14.909Z,33.50
2017-10-17T19:33:43.116Z,24.80
2017-10-17T19:36:10.572Z,20.07
2017-10-17T19:38:38.038Z,18.50
2017-10-17T19:41:06.543Z,25.33
2017-10-17T19:43:34.570Z,25.70
2017-10-17T19:46:02.029Z,25.07
2017-10-17T19:48:29.464Z,24.10
2017-10-17T19:50:57.697Z,20.07
2017-10-17T19:53:25.159Z,15.10
2017-10-17T19:55:52.612Z,15.23
2017-10-17T19:58:20.767Z,19.00
2017-10-17T20:00:48.220Z,18.80
2017-10-17T20:03:16.092Z,17.30
2017-10-17T20:05:43.541Z,20.23
2017-10-17T20:08:10.999Z,31.53
2017-10-17T20:10:38.454Z,29.50
2017-10-17T20:13:05.915Z,33.77
2017-10-17T20:15:33.372Z,26.70
2017-10-17T20:18:07.448Z,19.73
2017-10-17T20:20:35.706Z,32.67
2017-10-17T20:23:03.151Z,33.07
2017-10-17T20:25:30.601Z,28.70
2017-10-17T20:27:58.103Z,29.43
2017-10-17T20:30:26.321Z,38.07
2017-10-17T20:32:53.757Z,37.97
2017-10-17T20:35:21.661Z,32.17
2017-10-17T20:37:49.669Z,24.90
2017-10-17T20:40:17.894Z,24.47
2017-10-17T20:42:45.445Z,27.77
2017-10-17T20:45:13.066Z,35.13
2017-10-17T20:47:41.726Z,30.23
2017-10-17T20:50:09.747Z,38.20
2017-10-17T20:52:37.313Z,32.10
2017-10-17T20:55:04.767Z,24.27
2017-10-17T20:57:32.220Z,22.70
2017-10-17T20:59:59.664Z,19.70
2017-10-17T21:02:27.411Z,14.37
2017-10-17T21:04:55.627Z,20.37
2017-10-17T21:07:23.068Z,16.43
2017-10-17T21:09:50.515Z,17.37
2017-10-17T21:12:19.114Z,14.47
2017-10-17T21:14:46.546Z,12.57
2017-10-17T21:17:14.776Z,11.50
2017-10-17T21:19:42.228Z,15.60
2017-10-17T21:22:09.665Z,11.43
2017-10-17T21:24:37.515Z,9.03
2017-10-17T21:27:05.234Z,9.27
2017-10-17T21:29:32.674Z,14.77
2017-10-17T21:32:00.128Z,18.57
2017-10-17T21:34:27.987Z,18.03
2017-10-17T21:36:55.432Z,18.30
2017-10-17T21:39:22.871Z,16.47
2017-10-17T21:41:51.124Z,16.20
2017-10-17T21:44:19.446Z,16.67
2017-10-17T21:46:47.023Z,20.87
2017-10-17T21:49:14.474Z,12.67
2017-10-17T21:51:42.742Z,12.77
2017-10-17T21:54:10.527Z,13.37
2017-10-17T21:56:37.967Z,10.90
2017-10-17T21:59:05.425Z,14.37
2017-10-17T22:01:33.230Z,16.33
2017-10-17T22:04:00.658Z,19.93
2017-10-17T22:06:28.107Z,36.80
2017-10-17T22:08:55.590Z,37.17
2017-10-17T22:11:24.032Z,29.30
2017-10-17T22:13:51.984Z,25.53
2017-10-17T22:16:19.418Z,19.20
2017-10-17T22:18:47.632Z,19.87
2017-10-17T22:21:15.083Z,17.30
2017-10-17T22:23:42.523Z,13.80
2017-10-17T22:26:09.975Z,15.10
2017-10-17T22:28:39.001Z,13.07
2017-10-17T22:31:06.476Z,14.93
2017-10-17T22:33:34.454Z,17.13
2017-10-17T22:36:01.916Z,18.47
2017-10-17T22:38:29.360Z,18.20
2017-10-17T22:40:57.227Z,21.80
2017-10-17T22:43:24.678Z,15.67
2017-10-17T22:45:52.130Z,22.47
2017-10-17T22:48:19.682Z,20.33
2017-10-17T22:50:47.114Z,16.23
2017-10-17T22:53:15.395Z,19.60
2017-10-17T22:55:43.624Z,18.20
2017-10-17T22:58:11.595Z,20.17
2017-10-17T23:00:39.042Z,18.23
2017-10-17T23:03:06.475Z,17.97
2017-10-17T23:05:33.931Z,14.33
2017-10-17T23:08:01.371Z,14.27
2017-10-17T23:10:28.865Z,15.73
2017-10-17T23:12:56.307Z,16.43
2017-10-17T23:15:24.298Z,17.37
2017-10-17T23:18:04.963Z,16.67
2017-10-17T23:20:37.987Z,16.23
2017-10-17T23:23:06.604Z,13.93
2017-10-17T23:25:34.749Z,14.57
2017-10-17T23:28:03.164Z,14.50
2017-10-17T23:30:31.041Z,13.47
2017-10-17T23:32:58.481Z,13.63
2017-10-17T23:35:26.507Z,19.23
2017-10-17T23:37:53.940Z,26.63
2017-10-17T23:40:21.387Z,30.83
2017-10-17T23:42:48.826Z,30.13
2017-10-17T23:45:16.274Z,25.67
2017-10-17T23:47:43.716Z,18.87
2017-10-17T23:50:11.930Z,13.13
2017-10-17T23:52:39.368Z,10.67
2017-10-17T23:55:07.358Z,17.60
2017-10-17T23:57:35.371Z,19.10
